Richey, Montana
Current Conditions -  °F | °C
As of 8:15 AM on Thursday 18 Dec 2014 (Local Time) from KGDV Reporting Station
Overcast Overcast  
Wind Chill: 25°   Ceiling: 500
Heat Index: 25°   Visibility: 10mi
Dew Point: 21°   Wind: 3mph
Humidity: 86%   Direction: 220°SW
Pressure: 29.97"   Gusts: NA
Location:  47.64°N, 105.07°W
Report Text: KGDV 181515Z AUTO 22003KT 10SM OVC005 M04/M06 A2997 RMK AO1
Loading
Personal Weather Stations






























Interactive Weather Map New forecast layout! Learn more

10-Day Weather Forecast

Advertisements
Track Severe Weather on mobile